Time,TemperatureF,DewpointF,PressureIn,WindDirection,WindDirectionDegrees,WindSpeedMPH,WindSpeedGustMPH,Humidity,HourlyPrecipIn,Conditions,Clouds,dailyrainin,SoftwareType,DateUTC
2013-04-07 00:00:00,55.4,29.3,29.73,SW,236,0.0,12.0,37,0.00,,,0.00,WUHU216DAVISVP2,2013-04-07 04:00:00,
2013-04-07 00:01:00,55.3,29.3,29.73,SW,236,0.0,12.0,37,0.00,,,0.00,WUHU216DAVISVP2,2013-04-07 04:01:00,
2013-04-07 00:06:00,55.5,29.4,29.72,WSW,242,0.0,12.0,37,0.00,,,0.00,WUHU216DAVISVP2,2013-04-07 04:06:00,
2013-04-07 00:11:00,55.5,30.1,29.72,SSW,199,1.0,12.0,38,0.00,,,0.00,WUHU216DAVISVP2,2013-04-07 04:11:00,
2013-04-07 00:16:00,55.4,30.0,29.72,WSW,242,0.0,12.0,38,0.00,,,0.00,WUHU216DAVISVP2,2013-04-07 04:16:00,
2013-04-07 00:22:00,55.3,29.9,29.72,South,180,2.0,8.0,38,0.00,,,0.00,WUHU216DAVISVP2,2013-04-07 04:22:00,
2013-04-07 00:27:00,55.2,29.8,29.71,SW,234,2.0,9.0,38,0.00,,,0.00,WUHU216DAVISVP2,2013-04-07 04:27:00,
2013-04-07 00:32:00,55.2,30.5,29.71,SW,221,4.0,9.0,39,0.00,,,0.00,WUHU216DAVISVP2,2013-04-07 04:32:00,
2013-04-07 00:37:00,55.2,30.5,29.71,West,279,4.0,9.0,39,0.00,,,0.00,WUHU216DAVISVP2,2013-04-07 04:37:00,
2013-04-07 00:42:00,55.1,31.2,29.71,SSE,155,3.0,7.0,40,0.00,,,0.00,WUHU216DAVISVP2,2013-04-07 04:42:00,
2013-04-07 00:47:00,55.1,31.2,29.70,WSW,240,1.0,8.0,40,0.00,,,0.00,WUHU216DAVISVP2,2013-04-07 04:47:00,
2013-04-07 00:52:00,55.0,31.1,29.70,SW,221,8.0,8.0,40,0.00,,,0.00,WUHU216DAVISVP2,2013-04-07 04:52:00,
2013-04-07 00:57:00,55.1,31.8,29.70,West,275,2.0,8.0,41,0.00,,,0.00,WUHU216DAVISVP2,2013-04-07 04:57:00,
2013-04-07 01:02:00,55.1,31.8,29.70,South,169,7.0,11.0,41,0.00,,,0.00,WUHU216DAVISVP2,2013-04-07 05:02:00,
2013-04-07 01:07:00,55.3,31.8,29.69,SSW,209,2.0,11.0,41,0.00,,,0.00,WUHU216DAVISVP2,2013-04-07 05:07:00,
2013-04-07 01:12:00,55.4,31.9,29.69,SW,224,5.0,10.0,41,0.00,,,0.00,WUHU216DAVISVP2,2013-04-07 05:12:00,
2013-04-07 01:17:00,55.5,32.0,29.69,WNW,284,2.0,10.0,41,0.00,,,0.00,WUHU216DAVISVP2,2013-04-07 05:17:00,
2013-04-07 01:22:00,55.5,32.6,29.69,SSW,206,4.0,13.0,42,0.00,,,0.00,WUHU216DAVISVP2,2013-04-07 05:22:00,
2013-04-07 01:27:00,55.5,32.6,29.69,South,170,3.0,13.0,42,0.00,,,0.00,WUHU216DAVISVP2,2013-04-07 05:27:00,
2013-04-07 01:32:00,55.4,33.1,29.68,South,189,1.0,8.0,43,0.00,,,0.00,WUHU216DAVISVP2,2013-04-07 05:32:00,
2013-04-07 01:38:00,55.4,33.1,29.68,WSW,244,0.0,9.0,43,0.00,,,0.00,WUHU216DAVISVP2,2013-04-07 05:38:00,
2013-04-07 01:43:00,55.4,33.7,29.68,SSW,196,2.0,9.0,44,0.00,,,0.00,WUHU216DAVISVP2,2013-04-07 05:43:00,
2013-04-07 01:48:00,55.4,33.7,29.67,SSE,161,6.0,8.0,44,0.00,,,0.00,WUHU216DAVISVP2,2013-04-07 05:48:00,
2013-04-07 01:53:00,55.4,34.3,29.67,SW,217,0.0,7.0,45,0.00,,,0.00,WUHU216DAVISVP2,2013-04-07 05:53:00,
2013-04-07 01:58:00,55.3,34.8,29.67,SW,233,1.0,6.0,46,0.00,,,0.00,WUHU216DAVISVP2,2013-04-07 05:58:00,
2013-04-07 02:03:00,55.3,34.8,29.67,WSW,243,4.0,6.0,46,0.00,,,0.00,WUHU216DAVISVP2,2013-04-07 06:03:00,
2013-04-07 02:08:00,55.4,35.4,29.66,South,182,0.0,4.0,47,0.00,,,0.00,WUHU216DAVISVP2,2013-04-07 06:08:00,
2013-04-07 02:13:00,55.5,35.5,29.66,East,101,4.0,5.0,47,0.00,,,0.00,WUHU216DAVISVP2,2013-04-07 06:13:00,
2013-04-07 02:18:00,55.6,36.2,29.66,SW,236,2.0,6.0,48,0.00,,,0.00,WUHU216DAVISVP2,2013-04-07 06:18:00,
2013-04-07 02:23:00,55.8,36.4,29.66,SW,223,4.0,9.0,48,0.00,,,0.00,WUHU216DAVISVP2,2013-04-07 06:23:00,
2013-04-07 02:29:00,56.3,37.4,29.65,SW,217,0.0,9.0,49,0.00,,,0.00,WUHU216DAVISVP2,2013-04-07 06:29:00,
2013-04-07 02:34:00,56.5,37.6,29.65,SSW,192,0.0,6.0,49,0.00,,,0.00,WUHU216DAVISVP2,2013-04-07 06:34:00,
2013-04-07 02:39:00,56.6,39.7,29.64,SSE,165,6.0,9.0,53,0.00,,,0.00,WUHU216DAVISVP2,2013-04-07 06:39:00,
2013-04-07 02:44:00,56.7,39.7,29.64,West,261,1.0,9.0,53,0.00,,,0.00,WUHU216DAVISVP2,2013-04-07 06:44:00,
2013-04-07 02:49:00,56.8,39.8,29.63,WNW,300,6.0,7.0,53,0.00,,,0.00,WUHU216DAVISVP2,2013-04-07 06:49:00,
2013-04-07 02:54:00,56.9,39.4,29.63,SSW,213,2.0,10.0,52,0.00,,,0.00,WUHU216DAVISVP2,2013-04-07 06:54:00,
2013-04-07 02:59:00,57.1,39.6,29.63,WSW,252,6.0,16.0,52,0.00,,,0.00,WUHU216DAVISVP2,2013-04-07 06:59:00,
2013-04-07 03:05:00,57.3,39.8,29.63,West,265,5.0,16.0,52,0.00,,,0.00,WUHU216DAVISVP2,2013-04-07 07:05:00,
2013-04-07 03:10:00,57.5,39.5,29.63,West,281,4.0,9.0,51,0.00,,,0.00,WUHU216DAVISVP2,2013-04-07 07:10:00,
2013-04-07 03:15:00,57.6,39.6,29.63,West,267,3.0,9.0,51,0.00,,,0.00,WUHU216DAVISVP2,2013-04-07 07:15:00,
2013-04-07 03:20:00,57.7,39.7,29.63,SW,228,4.0,8.0,51,0.00,,,0.00,WUHU216DAVISVP2,2013-04-07 07:20:00,
2013-04-07 03:25:00,57.7,40.2,29.63,South,182,2.0,8.0,52,0.00,,,0.00,WUHU216DAVISVP2,2013-04-07 07:25:00,
2013-04-07 03:30:00,57.6,40.1,29.63,West,275,7.0,11.0,52,0.00,,,0.00,WUHU216DAVISVP2,2013-04-07 07:30:00,
2013-04-07 03:35:00,57.7,39.7,29.63,WSW,250,4.0,11.0,51,0.00,,,0.00,WUHU216DAVISVP2,2013-04-07 07:35:00,
2013-04-07 03:40:00,57.9,39.9,29.63,WSW,258,5.0,11.0,51,0.00,,,0.00,WUHU216DAVISVP2,2013-04-07 07:40:00,
2013-04-07 03:45:00,58.1,39.5,29.62,WSW,254,4.0,9.0,50,0.00,,,0.00,WUHU216DAVISVP2,2013-04-07 07:45:00,
2013-04-07 03:51:00,58.6,40.0,29.62,West,275,3.0,10.0,50,0.00,,,0.00,WUHU216DAVISVP2,2013-04-07 07:51:00,
2013-04-07 03:56:00,59.0,40.4,29.62,WSW,258,6.0,12.0,50,0.00,,,0.00,WUHU216DAVISVP2,2013-04-07 07:56:00,
2013-04-07 04:01:00,59.1,40.5,29.62,West,277,7.0,16.0,50,0.00,,,0.00,WUHU216DAVISVP2,2013-04-07 08:01:00,
2013-04-07 04:06:00,59.0,40.4,29.62,SW,221,4.0,16.0,50,0.00,,,0.00,WUHU216DAVISVP2,2013-04-07 08:06:00,
2013-04-07 04:11:00,58.7,40.6,29.62,West,265,5.0,13.0,51,0.00,,,0.00,WUHU216DAVISVP2,2013-04-07 08:11:00,
2013-04-07 04:16:00,58.3,40.8,29.62,NW,316,7.0,13.0,52,0.00,,,0.00,WUHU216DAVISVP2,2013-04-07 08:16:00,
2013-04-07 04:22:00,58.1,41.1,29.62,SW,231,11.0,12.0,53,0.00,,,0.00,WUHU216DAVISVP2,2013-04-07 08:22:00,
2013-04-07 04:27:00,57.8,42.3,29.61,WSW,238,5.0,12.0,56,0.00,,,0.00,WUHU216DAVISVP2,2013-04-07 08:27:00,
2013-04-07 04:32:00,57.8,43.2,29.61,WNW,284,4.0,13.0,58,0.00,,,0.00,WUHU216DAVISVP2,2013-04-07 08:32:00,
2013-04-07 04:37:00,57.5,43.8,29.61,West,267,4.0,23.0,60,0.00,,,0.00,WUHU216DAVISVP2,2013-04-07 08:37:00,
2013-04-07 04:42:00,57.1,44.3,29.60,WSW,251,8.0,23.0,62,0.00,,,0.00,WUHU216DAVISVP2,2013-04-07 08:42:00,
2013-04-07 04:47:00,56.8,44.5,29.60,SSW,202,4.0,10.0,63,0.00,,,0.00,WUHU216DAVISVP2,2013-04-07 08:47:00,
2013-04-07 04:52:00,56.6,44.7,29.60,WSW,248,6.0,9.0,64,0.00,,,0.00,WUHU216DAVISVP2,2013-04-07 08:52:00,
2013-04-07 04:57:00,56.4,44.9,29.60,West,277,12.0,13.0,65,0.00,,,0.00,WUHU216DAVISVP2,2013-04-07 08:57:00,
2013-04-07 05:03:00,56.1,44.6,29.59,SW,221,2.0,13.0,65,0.00,,,0.00,WUHU216DAVISVP2,2013-04-07 09:03:00,
2013-04-07 05:08:00,55.8,44.7,29.59,WSW,256,4.0,10.0,66,0.00,,,0.00,WUHU216DAVISVP2,2013-04-07 09:08:00,
2013-04-07 05:13:00,55.5,44.8,29.59,WSW,255,4.0,9.0,67,0.00,,,0.00,WUHU216DAVISVP2,2013-04-07 09:13:00,
2013-04-07 05:18:00,55.3,44.7,29.59,West,267,4.0,9.0,67,0.00,,,0.00,WUHU216DAVISVP2,2013-04-07 09:18:00,
2013-04-07 05:23:00,55.2,44.6,29.59,South,189,8.0,9.0,67,0.00,,,0.00,WUHU216DAVISVP2,2013-04-07 09:23:00,
2013-04-07 05:28:00,55.1,44.5,29.59,WSW,248,2.0,9.0,67,0.00,,,0.00,WUHU216DAVISVP2,2013-04-07 09:28:00,
2013-04-07 05:34:00,54.9,44.1,29.59,WSW,243,2.0,11.0,67,0.00,,,0.00,WUHU216DAVISVP2,2013-04-07 09:34:00,
2013-04-07 05:39:00,55.0,44.2,29.60,SSW,198,5.0,11.0,67,0.00,,,0.00,WUHU216DAVISVP2,2013-04-07 09:39:00,
2013-04-07 05:44:00,55.0,43.8,29.60,West,276,4.0,10.0,66,0.00,,,0.00,WUHU216DAVISVP2,2013-04-07 09:44:00,
2013-04-07 05:49:00,54.9,43.7,29.60,WSW,252,5.0,10.0,66,0.00,,,0.00,WUHU216DAVISVP2,2013-04-07 09:49:00,
2013-04-07 05:55:00,54.9,43.7,29.60,SW,221,2.0,9.0,66,0.00,,,0.00,WUHU216DAVISVP2,2013-04-07 09:55:00,
2013-04-07 06:00:00,54.8,43.8,29.60,West,266,5.0,11.0,66,0.00,,,0.00,WUHU216DAVISVP2,2013-04-07 10:00:00,
2013-04-07 06:05:00,54.7,43.7,29.60,West,262,2.0,11.0,66,0.00,,,0.00,WUHU216DAVISVP2,2013-04-07 10:05:00,
2013-04-07 06:10:00,54.6,43.6,29.60,WSW,255,4.0,9.0,66,0.00,,,0.00,WUHU216DAVISVP2,2013-04-07 10:10:00,
2013-04-07 06:15:00,54.5,43.5,29.60,WSW,242,4.0,9.0,66,0.00,,,0.00,WUHU216DAVISVP2,2013-04-07 10:15:00,
2013-04-07 06:20:00,54.5,43.1,29.60,West,265,4.0,9.0,65,0.00,,,0.00,WUHU216DAVISVP2,2013-04-07 10:20:00,
2013-04-07 06:25:00,54.5,43.1,29.60,SSW,203,2.0,9.0,65,0.00,,,0.00,WUHU216DAVISVP2,2013-04-07 10:25:00,
2013-04-07 06:26:00,54.5,43.1,29.60,SW,219,4.0,8.0,65,0.00,,,0.00,WUHU216DAVISVP2,2013-04-07 10:26:00,
2013-04-07 06:30:00,54.5,43.1,29.60,SW,236,6.0,8.0,65,0.00,,,0.00,WUHU216DAVISVP2,2013-04-07 10:30:00,
2013-04-07 06:35:00,54.6,42.8,29.60,WSW,247,6.0,14.0,64,0.00,,,0.00,WUHU216DAVISVP2,2013-04-07 10:35:00,
2013-04-07 06:40:00,54.6,42.8,29.60,WNW,301,5.0,14.0,64,0.00,,,0.00,WUHU216DAVISVP2,2013-04-07 10:40:00,
2013-04-07 06:45:00,54.8,43.0,29.61,WNW,299,2.0,12.0,64,0.00,,,0.00,WUHU216DAVISVP2,2013-04-07 10:45:00,
2013-04-07 06:50:00,54.6,42.8,29.61,West,270,5.0,10.0,64,0.00,,,0.00,WUHU216DAVISVP2,2013-04-07 10:50:00,
2013-04-07 06:55:00,54.5,43.1,29.61,SW,217,6.0,10.0,65,0.00,,,0.00,WUHU216DAVISVP2,2013-04-07 10:55:00,
2013-04-07 06:59:00,54.4,43.0,29.61,West,265,7.0,10.0,65,0.00,,,0.00,WUHU216DAVISVP2,2013-04-07 10:59:00,
2013-04-07 07:00:00,54.4,43.0,29.61,West,265,7.0,10.0,65,0.00,,,0.00,WUHU216DAVISVP2,2013-04-07 11:00:00,
2013-04-07 07:06:00,54.4,43.0,29.61,West,265,7.0,10.0,65,0.00,,,0.00,WUHU216DAVISVP2,2013-04-07 11:06:00,
2013-04-07 07:11:00,54.2,43.2,29.62,SW,227,6.0,12.0,66,0.00,,,0.00,WUHU216DAVISVP2,2013-04-07 11:11:00,
2013-04-07 07:16:00,54.2,43.6,29.62,WNW,294,5.0,9.0,67,0.00,,,0.00,WUHU216DAVISVP2,2013-04-07 11:16:00,
2013-04-07 07:21:00,54.2,43.6,29.63,West,263,7.0,9.0,67,0.00,,,0.00,WUHU216DAVISVP2,2013-04-07 11:21:00,
2013-04-07 07:26:00,54.3,44.1,29.63,WNW,286,8.0,12.0,68,0.00,,,0.00,WUHU216DAVISVP2,2013-04-07 11:26:00,
2013-04-07 07:32:00,54.5,44.7,29.64,WSW,255,8.0,19.0,69,0.00,,,0.00,WUHU216DAVISVP2,2013-04-07 11:32:00,
2013-04-07 07:37:00,54.6,45.1,29.64,WSW,252,3.0,19.0,70,0.00,,,0.00,WUHU216DAVISVP2,2013-04-07 11:37:00,
2013-04-07 07:42:00,54.6,45.5,29.64,NW,311,7.0,16.0,71,0.00,,,0.00,WUHU216DAVISVP2,2013-04-07 11:42:00,
2013-04-07 07:47:00,54.7,46.0,29.65,WNW,285,6.0,15.0,72,0.00,,,0.00,WUHU216DAVISVP2,2013-04-07 11:47:00,
2013-04-07 07:49:00,54.6,45.8,29.65,WNW,300,11.0,18.0,72,0.00,,,0.00,WUHU216DAVISVP2,2013-04-07 11:49:00,
2013-04-07 07:52:00,54.6,45.8,29.65,WNW,300,11.0,18.0,72,0.00,,,0.00,WUHU216DAVISVP2,2013-04-07 11:52:00,
2013-04-07 07:57:00,54.4,45.9,29.65,WNW,296,9.0,18.0,73,0.00,,,0.00,WUHU216DAVISVP2,2013-04-07 11:57:00,
2013-04-07 08:02:00,54.5,46.1,29.65,West,263,7.0,18.0,73,0.00,,,0.00,WUHU216DAVISVP2,2013-04-07 12:02:00,
2013-04-07 08:07:00,54.4,46.0,29.66,WNW,301,8.0,14.0,73,0.00,,,0.00,WUHU216DAVISVP2,2013-04-07 12:07:00,
2013-04-07 08:12:00,54.4,46.3,29.67,West,279,12.0,18.0,74,0.00,,,0.00,WUHU216DAVISVP2,2013-04-07 12:12:00,
2013-04-07 08:17:00,54.4,46.4,29.67,WNW,282,7.0,14.0,74,0.00,,,0.00,WUHU216DAVISVP2,2013-04-07 12:17:00,
2013-04-07 08:22:00,54.3,46.3,29.67,West,275,6.0,15.0,74,0.00,,,0.00,WUHU216DAVISVP2,2013-04-07 12:22:00,
2013-04-07 08:28:00,54.3,46.6,29.67,WNW,289,12.0,15.0,75,0.00,,,0.00,WUHU216DAVISVP2,2013-04-07 12:28:00,
2013-04-07 08:33:00,54.2,46.5,29.67,WNW,290,8.0,21.0,75,0.00,,,0.00,WUHU216DAVISVP2,2013-04-07 12:33:00,
2013-04-07 08:38:00,54.2,46.5,29.67,West,266,10.0,19.0,75,0.00,,,0.00,WUHU216DAVISVP2,2013-04-07 12:38:00,
2013-04-07 08:43:00,54.3,46.3,29.67,WSW,256,10.0,19.0,74,0.00,,,0.00,WUHU216DAVISVP2,2013-04-07 12:43:00,
2013-04-07 08:48:00,54.4,46.4,29.68,West,281,7.0,19.0,74,0.00,,,0.00,WUHU216DAVISVP2,2013-04-07 12:48:00,
2013-04-07 08:53:00,54.4,46.3,29.68,West,268,7.0,18.0,74,0.00,,,0.00,WUHU216DAVISVP2,2013-04-07 12:53:00,
2013-04-07 08:59:00,54.4,46.3,29.68,West,268,7.0,18.0,74,0.00,,,0.00,WUHU216DAVISVP2,2013-04-07 12:59:00,
2013-04-07 09:04:00,54.4,46.4,29.68,WSW,254,6.0,18.0,74,0.00,,,0.00,WUHU216DAVISVP2,2013-04-07 13:04:00,
2013-04-07 09:09:00,54.3,46.6,29.69,West,281,4.0,19.0,75,0.00,,,0.00,WUHU216DAVISVP2,2013-04-07 13:09:00,
2013-04-07 09:14:00,54.2,46.5,29.69,WNW,294,9.0,19.0,75,0.00,,,0.00,WUHU216DAVISVP2,2013-04-07 13:14:00,
2013-04-07 09:19:00,54.1,46.4,29.69,NW,306,19.0,19.0,75,0.00,,,0.00,WUHU216DAVISVP2,2013-04-07 13:19:00,
2013-04-07 09:24:00,54.0,46.3,29.70,WNW,286,9.0,19.0,75,0.00,,,0.00,WUHU216DAVISVP2,2013-04-07 13:24:00,
2013-04-07 09:29:00,53.9,46.2,29.70,NW,316,12.0,19.0,75,0.00,,,0.00,WUHU216DAVISVP2,2013-04-07 13:29:00,
2013-04-07 09:32:00,53.3,45.0,29.70,WNW,296,6.0,16.0,73,0.00,,,0.00,WUHU216DAVISVP2,2013-04-07 13:32:00,
2013-04-07 09:34:00,53.3,45.0,29.70,WNW,296,6.0,16.0,73,0.00,,,0.00,WUHU216DAVISVP2,2013-04-07 13:34:00,
2013-04-07 09:39:00,53.0,44.7,29.71,West,268,11.0,18.0,73,0.00,,,0.00,WUHU216DAVISVP2,2013-04-07 13:39:00,
2013-04-07 09:45:00,52.7,44.0,29.71,WSW,254,9.0,18.0,72,0.00,,,0.00,WUHU216DAVISVP2,2013-04-07 13:45:00,
2013-04-07 09:50:00,52.5,44.1,29.72,WNW,301,11.0,16.0,73,0.00,,,0.00,WUHU216DAVISVP2,2013-04-07 13:50:00,
2013-04-07 09:55:00,52.3,43.9,29.72,WNW,292,13.0,16.0,73,0.00,,,0.00,WUHU216DAVISVP2,2013-04-07 13:55:00,
2013-04-07 10:00:00,52.1,43.7,29.72,WNW,284,8.0,20.0,73,0.00,,,0.00,WUHU216DAVISVP2,2013-04-07 14:00:00,
2013-04-07 10:05:00,52.0,43.6,29.72,WNW,299,12.0,22.0,73,0.00,,,0.00,WUHU216DAVISVP2,2013-04-07 14:05:00,
2013-04-07 10:08:00,52.0,43.3,29.73,WNW,297,11.0,22.0,72,0.00,,,0.00,WUHU216DAVISVP2,2013-04-07 14:08:00,
2013-04-07 10:11:00,52.0,43.3,29.73,WNW,297,11.0,22.0,72,0.00,,,0.00,WUHU216DAVISVP2,2013-04-07 14:11:00,
2013-04-07 10:16:00,51.9,42.8,29.73,WNW,294,12.0,23.0,71,0.00,,,0.00,WUHU216DAVISVP2,2013-04-07 14:16:00,
2013-04-07 10:21:00,51.9,42.8,29.72,WNW,297,6.0,19.0,71,0.00,,,0.00,WUHU216DAVISVP2,2013-04-07 14:21:00,
2013-04-07 10:25:00,51.9,42.9,29.73,West,275,9.0,23.0,71,0.00,,,0.00,WUHU216DAVISVP2,2013-04-07 14:25:00,
2013-04-07 10:26:00,51.9,42.9,29.73,West,280,8.0,23.0,71,0.00,,,0.00,WUHU216DAVISVP2,2013-04-07 14:26:00,
2013-04-07 10:31:00,51.9,42.9,29.73,West,275,9.0,23.0,71,0.00,,,0.00,WUHU216DAVISVP2,2013-04-07 14:31:00,
2013-04-07 10:36:00,53.1,43.7,29.73,WNW,288,10.0,18.0,70,0.00,,,0.00,WUHU216DAVISVP2,2013-04-07 14:36:00,
2013-04-07 10:42:00,53.3,43.1,29.74,West,279,13.0,16.0,68,0.00,,,0.00,WUHU216DAVISVP2,2013-04-07 14:42:00,
2013-04-07 10:47:00,53.3,43.1,29.73,West,281,10.0,16.0,68,0.00,,,0.00,WUHU216DAVISVP2,2013-04-07 14:47:00,
2013-04-07 10:52:00,53.0,43.6,29.74,NW,326,7.0,16.0,70,0.00,,,0.00,WUHU216DAVISVP2,2013-04-07 14:52:00,
2013-04-07 10:57:00,52.7,43.3,29.74,WNW,294,6.0,18.0,70,0.00,,,0.00,WUHU216DAVISVP2,2013-04-07 14:57:00,
2013-04-07 11:02:00,52.6,43.1,29.75,WNW,285,9.0,18.0,70,0.00,,,0.00,WUHU216DAVISVP2,2013-04-07 15:02:00,
2013-04-07 11:07:00,52.6,43.6,29.75,WNW,293,9.0,18.0,71,0.00,,,0.00,WUHU216DAVISVP2,2013-04-07 15:07:00,
2013-04-07 11:12:00,52.6,43.6,29.75,WNW,294,8.0,14.0,71,0.00,,,0.00,WUHU216DAVISVP2,2013-04-07 15:12:00,
2013-04-07 11:17:00,52.1,43.4,29.76,WNW,291,10.0,18.0,72,0.00,,,0.00,WUHU216DAVISVP2,2013-04-07 15:17:00,
2013-04-07 11:23:00,52.0,43.7,29.76,WNW,288,9.0,18.0,73,0.00,,,0.00,WUHU216DAVISVP2,2013-04-07 15:23:00,
2013-04-07 11:28:00,52.0,43.7,29.76,WNW,283,12.0,18.0,73,0.00,,,0.00,WUHU216DAVISVP2,2013-04-07 15:28:00,
2013-04-07 11:33:00,51.9,43.2,29.77,WNW,286,12.0,20.0,72,0.00,,,0.00,WUHU216DAVISVP2,2013-04-07 15:33:00,
2013-04-07 11:38:00,51.9,42.9,29.77,NW,307,8.0,19.0,71,0.00,,,0.00,WUHU216DAVISVP2,2013-04-07 15:38:00,
2013-04-07 11:43:00,52.3,42.5,29.77,NW,309,7.0,20.0,69,0.00,,,0.00,WUHU216DAVISVP2,2013-04-07 15:43:00,
2013-04-07 11:48:00,51.6,41.8,29.78,WNW,301,9.0,20.0,69,0.00,,,0.00,WUHU216DAVISVP2,2013-04-07 15:48:00,
2013-04-07 11:53:00,51.4,42.0,29.78,NW,311,7.0,18.0,70,0.00,,,0.00,WUHU216DAVISVP2,2013-04-07 15:53:00,
2013-04-07 11:59:00,51.3,42.0,29.78,WNW,285,8.0,19.0,70,0.00,,,0.00,WUHU216DAVISVP2,2013-04-07 15:59:00,
2013-04-07 12:04:00,51.3,42.0,29.78,WNW,284,9.0,22.0,70,0.00,,,0.00,WUHU216DAVISVP2,2013-04-07 16:04:00,
2013-04-07 12:09:00,51.2,41.9,29.78,WNW,290,8.0,22.0,70,0.00,,,0.00,WUHU216DAVISVP2,2013-04-07 16:09:00,
2013-04-07 12:14:00,51.1,41.8,29.79,WNW,299,10.0,20.0,70,0.00,,,0.00,WUHU216DAVISVP2,2013-04-07 16:14:00,
2013-04-07 12:19:00,50.8,41.8,29.79,NW,309,7.0,19.0,71,0.00,,,0.00,WUHU216DAVISVP2,2013-04-07 16:19:00,
2013-04-07 12:24:00,51.2,41.9,29.79,WNW,302,7.0,15.0,70,0.00,,,0.00,WUHU216DAVISVP2,2013-04-07 16:24:00,
2013-04-07 12:29:00,51.4,42.0,29.79,NW,304,9.0,18.0,70,0.00,,,0.00,WUHU216DAVISVP2,2013-04-07 16:29:00,
2013-04-07 12:34:00,51.6,41.5,29.79,WNW,291,10.0,18.0,68,0.00,,,0.00,WUHU216DAVISVP2,2013-04-07 16:34:00,
2013-04-07 12:40:00,51.8,41.6,29.79,WNW,290,13.0,21.0,68,0.00,,,0.00,WUHU216DAVISVP2,2013-04-07 16:40:00,
2013-04-07 12:45:00,51.8,41.7,29.80,NW,320,10.0,21.0,68,0.00,,,0.00,WUHU216DAVISVP2,2013-04-07 16:45:00,
2013-04-07 12:50:00,51.7,41.2,29.80,WNW,294,8.0,21.0,67,0.00,,,0.00,WUHU216DAVISVP2,2013-04-07 16:50:00,
2013-04-07 12:55:00,51.9,41.4,29.80,NW,307,9.0,21.0,67,0.00,,,0.00,WUHU216DAVISVP2,2013-04-07 16:55:00,
2013-04-07 13:00:00,52.0,41.4,29.80,WNW,290,9.0,20.0,67,0.00,,,0.00,WUHU216DAVISVP2,2013-04-07 17:00:00,
2013-04-07 13:05:00,52.3,41.3,29.81,NNW,338,7.0,20.0,66,0.00,,,0.00,WUHU216DAVISVP2,2013-04-07 17:05:00,
2013-04-07 13:10:00,51.7,41.1,29.81,NW,325,5.0,21.0,67,0.00,,,0.00,WUHU216DAVISVP2,2013-04-07 17:10:00,
2013-04-07 13:15:00,52.0,41.5,29.81,West,280,9.0,21.0,67,0.00,,,0.00,WUHU216DAVISVP2,2013-04-07 17:15:00,
2013-04-07 13:20:00,51.7,40.8,29.81,SW,236,11.0,19.0,66,0.00,,,0.00,WUHU216DAVISVP2,2013-04-07 17:20:00,
2013-04-07 13:25:00,52.9,42.0,29.81,West,277,6.0,16.0,66,0.00,,,0.00,WUHU216DAVISVP2,2013-04-07 17:25:00,
2013-04-07 13:30:00,53.4,40.4,29.82,WNW,296,16.0,20.0,61,0.00,,,0.00,WUHU216DAVISVP2,2013-04-07 17:30:00,
2013-04-07 13:35:00,52.5,40.4,29.82,NW,326,9.0,20.0,63,0.00,,,0.00,WUHU216DAVISVP2,2013-04-07 17:35:00,
2013-04-07 13:40:00,52.5,40.4,29.82,NW,326,9.0,20.0,63,0.00,,,0.00,WUHU216DAVISVP2,2013-04-07 17:40:00,
2013-04-07 13:44:00,51.9,40.1,29.82,West,263,9.0,21.0,64,0.00,,,0.00,WUHU216DAVISVP2,2013-04-07 17:44:00,
2013-04-07 13:45:00,51.9,40.1,29.82,West,263,9.0,21.0,64,0.00,,,0.00,WUHU216DAVISVP2,2013-04-07 17:45:00,
2013-04-07 13:49:00,52.9,40.6,29.82,NE,43,7.0,21.0,63,0.00,,,0.00,WUHU216DAVISVP2,2013-04-07 17:49:00,
2013-04-07 13:50:00,52.9,40.6,29.82,NE,43,7.0,21.0,63,0.00,,,0.00,WUHU216DAVISVP2,2013-04-07 17:50:00,
2013-04-07 13:56:00,53.3,40.7,29.82,NW,309,10.0,16.0,62,0.00,,,0.00,WUHU216DAVISVP2,2013-04-07 17:56:00,
2013-04-07 14:01:00,53.8,40.3,29.82,NW,310,7.0,15.0,60,0.00,,,0.00,WUHU216DAVISVP2,2013-04-07 18:01:00,
2013-04-07 14:06:00,53.9,41.3,29.82,WNW,288,8.0,15.0,62,0.00,,,0.00,WUHU216DAVISVP2,2013-04-07 18:06:00,
2013-04-07 14:11:00,54.1,40.2,29.82,WNW,299,10.0,16.0,59,0.00,,,0.00,WUHU216DAVISVP2,2013-04-07 18:11:00,
2013-04-07 14:17:00,54.0,40.0,29.83,WNW,294,12.0,16.0,59,0.00,,,0.00,WUHU216DAVISVP2,2013-04-07 18:17:00,
2013-04-07 14:22:00,54.5,40.6,29.83,WNW,295,12.0,16.0,59,0.00,,,0.00,WUHU216DAVISVP2,2013-04-07 18:22:00,
2013-04-07 14:27:00,54.5,40.5,29.82,NW,309,4.0,16.0,59,0.00,,,0.00,WUHU216DAVISVP2,2013-04-07 18:27:00,
2013-04-07 14:32:00,54.3,39.9,29.83,West,275,11.0,20.0,58,0.00,,,0.00,WUHU216DAVISVP2,2013-04-07 18:32:00,
2013-04-07 14:37:00,54.6,40.2,29.83,NW,314,7.0,20.0,58,0.00,,,0.00,WUHU216DAVISVP2,2013-04-07 18:37:00,
2013-04-07 14:42:00,55.0,40.6,29.83,WNW,292,6.0,20.0,58,0.00,,,0.00,WUHU216DAVISVP2,2013-04-07 18:42:00,
2013-04-07 14:48:00,55.0,40.1,29.83,West,265,7.0,16.0,57,0.00,,,0.00,WUHU216DAVISVP2,2013-04-07 18:48:00,
2013-04-07 14:53:00,55.3,39.9,29.83,West,276,14.0,19.0,56,0.00,,,0.00,WUHU216DAVISVP2,2013-04-07 18:53:00,
2013-04-07 14:58:00,55.7,39.8,29.84,WNW,302,10.0,19.0,55,0.00,,,0.00,WUHU216DAVISVP2,2013-04-07 18:58:00,
2013-04-07 15:03:00,55.5,39.2,29.84,NW,309,8.0,16.0,54,0.00,,,0.00,WUHU216DAVISVP2,2013-04-07 19:03:00,
2013-04-07 15:08:00,55.6,39.2,29.84,NW,304,8.0,19.0,54,0.00,,,0.00,WUHU216DAVISVP2,2013-04-07 19:08:00,
2013-04-07 15:14:00,55.4,39.0,29.84,NW,325,6.0,19.0,54,0.00,,,0.00,WUHU216DAVISVP2,2013-04-07 19:14:00,
2013-04-07 15:19:00,55.6,38.7,29.84,WNW,289,8.0,20.0,53,0.00,,,0.00,WUHU216DAVISVP2,2013-04-07 19:19:00,
2013-04-07 15:23:00,55.4,39.6,29.85,NW,307,7.0,20.0,55,0.00,,,0.00,WUHU216DAVISVP2,2013-04-07 19:23:00,
2013-04-07 15:24:00,55.4,39.6,29.85,NW,307,7.0,20.0,55,0.00,,,0.00,WUHU216DAVISVP2,2013-04-07 19:24:00,
2013-04-07 15:29:00,55.7,39.4,29.85,NW,306,10.0,14.0,54,0.00,,,0.00,WUHU216DAVISVP2,2013-04-07 19:29:00,
2013-04-07 15:34:00,55.8,39.0,29.85,WNW,282,10.0,14.0,53,0.00,,,0.00,WUHU216DAVISVP2,2013-04-07 19:34:00,
2013-04-07 15:39:00,56.0,38.6,29.85,West,274,8.0,16.0,52,0.00,,,0.00,WUHU216DAVISVP2,2013-04-07 19:39:00,
2013-04-07 15:44:00,56.6,38.7,29.85,WNW,300,10.0,16.0,51,0.00,,,0.00,WUHU216DAVISVP2,2013-04-07 19:44:00,
2013-04-07 15:50:00,56.0,37.6,29.85,NW,311,11.0,20.0,50,0.00,,,0.00,WUHU216DAVISVP2,2013-04-07 19:50:00,
2013-04-07 15:52:00,55.9,38.0,29.86,WNW,297,9.0,20.0,51,0.00,,,0.00,WUHU216DAVISVP2,2013-04-07 19:52:00,
2013-04-07 15:55:00,55.9,38.0,29.86,WNW,297,9.0,20.0,51,0.00,,,0.00,WUHU216DAVISVP2,2013-04-07 19:55:00,
2013-04-07 15:58:00,56.1,37.7,29.86,NNW,335,11.0,20.0,50,0.00,,,0.00,WUHU216DAVISVP2,2013-04-07 19:58:00,
2013-04-07 16:00:00,56.1,37.7,29.86,NW,326,7.0,18.0,50,0.00,,,0.00,WUHU216DAVISVP2,2013-04-07 20:00:00,
2013-04-07 16:04:00,56.1,38.7,29.86,WNW,301,9.0,19.0,52,0.00,,,0.00,WUHU216DAVISVP2,2013-04-07 20:04:00,
2013-04-07 16:05:00,56.3,38.9,29.86,WNW,296,8.0,19.0,52,0.00,,,0.00,WUHU216DAVISVP2,2013-04-07 20:05:00,
2013-04-07 16:10:00,56.1,38.7,29.86,WNW,301,9.0,19.0,52,0.00,,,0.00,WUHU216DAVISVP2,2013-04-07 20:10:00,
2013-04-07 16:16:00,56.0,38.1,29.86,NW,315,6.0,24.0,51,0.00,,,0.00,WUHU216DAVISVP2,2013-04-07 20:16:00,
2013-04-07 16:21:00,56.1,38.7,29.86,WNW,294,9.0,24.0,52,0.00,,,0.00,WUHU216DAVISVP2,2013-04-07 20:21:00,
2013-04-07 16:26:00,56.5,38.1,29.86,NW,310,9.0,16.0,50,0.00,,,0.00,WUHU216DAVISVP2,2013-04-07 20:26:00,
2013-04-07 16:31:00,56.5,38.1,29.86,WNW,291,8.0,16.0,50,0.00,,,0.00,WUHU216DAVISVP2,2013-04-07 20:31:00,
2013-04-07 16:36:00,56.4,37.4,29.86,NNW,348,11.0,15.0,49,0.00,,,0.00,WUHU216DAVISVP2,2013-04-07 20:36:00,
2013-04-07 16:41:00,56.7,37.7,29.86,WNW,294,8.0,14.0,49,0.00,,,0.00,WUHU216DAVISVP2,2013-04-07 20:41:00,
2013-04-07 16:46:00,56.8,38.4,29.86,NW,325,7.0,14.0,50,0.00,,,0.00,WUHU216DAVISVP2,2013-04-07 20:46:00,
2013-04-07 16:51:00,56.9,37.9,29.86,WNW,288,10.0,14.0,49,0.00,,,0.00,WUHU216DAVISVP2,2013-04-07 20:51:00,
2013-04-07 16:56:00,57.1,38.1,29.87,West,273,8.0,14.0,49,0.00,,,0.00,WUHU216DAVISVP2,2013-04-07 20:56:00,
2013-04-07 17:01:00,57.3,37.7,29.87,WNW,297,4.0,14.0,48,0.00,,,0.00,WUHU216DAVISVP2,2013-04-07 21:01:00,
2013-04-07 17:06:00,56.8,37.3,29.87,NW,319,9.0,14.0,48,0.00,,,0.00,WUHU216DAVISVP2,2013-04-07 21:06:00,
2013-04-07 17:11:00,56.8,37.3,29.88,NW,306,10.0,13.0,48,0.00,,,0.00,WUHU216DAVISVP2,2013-04-07 21:11:00,
2013-04-07 17:16:00,56.4,36.9,29.88,WNW,291,7.0,14.0,48,0.00,,,0.00,WUHU216DAVISVP2,2013-04-07 21:16:00,
2013-04-07 17:22:00,56.1,37.2,29.88,NW,313,9.0,18.0,49,0.00,,,0.00,WUHU216DAVISVP2,2013-04-07 21:22:00,
2013-04-07 17:27:00,56.6,37.1,29.88,North,355,8.0,18.0,48,0.00,,,0.00,WUHU216DAVISVP2,2013-04-07 21:27:00,
2013-04-07 17:32:00,56.4,37.4,29.88,NW,308,8.0,12.0,49,0.00,,,0.00,WUHU216DAVISVP2,2013-04-07 21:32:00,
2013-04-07 17:37:00,56.4,36.9,29.89,NW,315,5.0,12.0,48,0.00,,,0.00,WUHU216DAVISVP2,2013-04-07 21:37:00,
2013-04-07 17:42:00,56.0,37.1,29.89,NW,311,6.0,13.0,49,0.00,,,0.00,WUHU216DAVISVP2,2013-04-07 21:42:00,
2013-04-07 17:47:00,56.0,36.5,29.89,NW,305,6.0,13.0,48,0.00,,,0.00,WUHU216DAVISVP2,2013-04-07 21:47:00,
2013-04-07 17:52:00,56.1,37.7,29.89,WNW,294,5.0,11.0,50,0.00,,,0.00,WUHU216DAVISVP2,2013-04-07 21:52:00,
2013-04-07 17:57:00,56.1,37.2,29.89,NNW,340,6.0,12.0,49,0.00,,,0.00,WUHU216DAVISVP2,2013-04-07 21:57:00,
2013-04-07 18:02:00,55.9,36.4,29.89,NW,311,4.0,12.0,48,0.00,,,0.00,WUHU216DAVISVP2,2013-04-07 22:02:00,
2013-04-07 18:08:00,55.4,36.5,29.90,WNW,301,7.0,12.0,49,0.00,,,0.00,WUHU216DAVISVP2,2013-04-07 22:08:00,
2013-04-07 18:13:00,55.1,36.8,29.90,NW,326,5.0,12.0,50,0.00,,,0.00,WUHU216DAVISVP2,2013-04-07 22:13:00,
2013-04-07 18:18:00,55.0,36.2,29.89,NNW,339,11.0,11.0,49,0.00,,,0.00,WUHU216DAVISVP2,2013-04-07 22:18:00,
2013-04-07 18:23:00,54.9,36.6,29.89,WNW,301,6.0,12.0,50,0.00,,,0.00,WUHU216DAVISVP2,2013-04-07 22:23:00,
2013-04-07 18:28:00,55.0,36.7,29.90,NW,304,2.0,9.0,50,0.00,,,0.00,WUHU216DAVISVP2,2013-04-07 22:28:00,
2013-04-07 18:33:00,55.0,36.2,29.90,WNW,293,6.0,9.0,49,0.00,,,0.00,WUHU216DAVISVP2,2013-04-07 22:33:00,
2013-04-07 18:38:00,54.9,36.1,29.90,NW,315,9.0,12.0,49,0.00,,,0.00,WUHU216DAVISVP2,2013-04-07 22:38:00,
2013-04-07 18:44:00,54.9,36.1,29.90,NW,315,9.0,12.0,49,0.00,,,0.00,WUHU216DAVISVP2,2013-04-07 22:44:00,
2013-04-07 18:49:00,54.3,36.0,29.90,WNW,293,6.0,10.0,50,0.00,,,0.00,WUHU216DAVISVP2,2013-04-07 22:49:00,
2013-04-07 18:54:00,54.2,36.5,29.90,NW,309,4.0,10.0,51,0.00,,,0.00,WUHU216DAVISVP2,2013-04-07 22:54:00,
2013-04-07 18:59:00,54.3,36.6,29.90,WNW,284,5.0,8.0,51,0.00,,,0.00,WUHU216DAVISVP2,2013-04-07 22:59:00,
2013-04-07 19:04:00,54.4,36.1,29.90,WNW,302,4.0,10.0,50,0.00,,,0.00,WUHU216DAVISVP2,2013-04-07 23:04:00,
2013-04-07 19:09:00,54.4,36.6,29.90,WNW,291,1.0,10.0,51,0.00,,,0.00,WUHU216DAVISVP2,2013-04-07 23:09:00,
2013-04-07 19:14:00,54.2,35.9,29.90,WNW,288,5.0,9.0,50,0.00,,,0.00,WUHU216DAVISVP2,2013-04-07 23:14:00,
2013-04-07 19:20:00,53.9,36.2,29.90,WNW,296,1.0,9.0,51,0.00,,,0.00,WUHU216DAVISVP2,2013-04-07 23:20:00,
2013-04-07 19:25:00,53.5,35.8,29.91,WNW,295,9.0,9.0,51,0.00,,,0.00,WUHU216DAVISVP2,2013-04-07 23:25:00,
2013-04-07 19:30:00,53.2,35.5,29.91,WNW,298,2.0,9.0,51,0.00,,,0.00,WUHU216DAVISVP2,2013-04-07 23:30:00,
2013-04-07 19:35:00,53.1,35.9,29.91,NNW,338,6.0,10.0,52,0.00,,,0.00,WUHU216DAVISVP2,2013-04-07 23:35:00,
2013-04-07 19:40:00,52.8,35.7,29.91,NW,313,5.0,10.0,52,0.00,,,0.00,WUHU216DAVISVP2,2013-04-07 23:40:00,
2013-04-07 19:45:00,52.6,35.5,29.91,NW,324,4.0,6.0,52,0.00,,,0.00,WUHU216DAVISVP2,2013-04-07 23:45:00,
2013-04-07 19:50:00,52.3,35.7,29.91,WNW,290,6.0,9.0,53,0.00,,,0.00,WUHU216DAVISVP2,2013-04-07 23:50:00,
2013-04-07 19:55:00,52.2,35.6,29.91,NW,321,4.0,9.0,53,0.00,,,0.00,WUHU216DAVISVP2,2013-04-07 23:55:00,
2013-04-07 20:00:00,52.1,35.5,29.91,WNW,301,4.0,8.0,53,0.00,,,0.00,WUHU216DAVISVP2,2013-04-08 00:00:00,
2013-04-07 20:05:00,51.8,35.7,29.91,WNW,298,1.0,6.0,54,0.00,,,0.00,WUHU216DAVISVP2,2013-04-08 00:05:00,
2013-04-07 20:11:00,51.6,35.5,29.91,NNW,329,2.0,6.0,54,0.00,,,0.00,WUHU216DAVISVP2,2013-04-08 00:11:00,
2013-04-07 20:16:00,51.3,35.7,29.91,NNW,331,1.0,5.0,55,0.00,,,0.00,WUHU216DAVISVP2,2013-04-08 00:16:00,
2013-04-07 20:21:00,51.1,35.5,29.92,NNW,331,1.0,4.0,55,0.00,,,0.00,WUHU216DAVISVP2,2013-04-08 00:21:00,
2013-04-07 20:26:00,51.1,35.5,29.92,NNW,331,1.0,4.0,55,0.00,,,0.00,WUHU216DAVISVP2,2013-04-08 00:26:00,
2013-04-07 20:31:00,50.6,35.5,29.92,NNW,332,2.0,5.0,56,0.00,,,0.00,WUHU216DAVISVP2,2013-04-08 00:31:00,
2013-04-07 20:37:00,50.4,35.3,29.92,NNW,332,3.0,5.0,56,0.00,,,0.00,WUHU216DAVISVP2,2013-04-08 00:37:00,
2013-04-07 20:42:00,50.2,35.2,29.92,NNW,332,3.0,5.0,56,0.00,,,0.00,WUHU216DAVISVP2,2013-04-08 00:42:00,
2013-04-07 20:47:00,49.9,35.3,29.92,NNW,332,0.0,4.0,57,0.00,,,0.00,WUHU216DAVISVP2,2013-04-08 00:47:00,
2013-04-07 20:52:00,49.7,35.1,29.92,NNW,332,2.0,4.0,57,0.00,,,0.00,WUHU216DAVISVP2,2013-04-08 00:52:00,
2013-04-07 20:57:00,49.3,35.2,29.92,NNW,332,1.0,4.0,58,0.00,,,0.00,WUHU216DAVISVP2,2013-04-08 00:57:00,
2013-04-07 21:02:00,48.9,34.8,29.92,NNW,332,0.0,5.0,58,0.00,,,0.00,WUHU216DAVISVP2,2013-04-08 01:02:00,
2013-04-07 21:07:00,48.7,35.1,29.92,NNW,333,0.0,5.0,59,0.00,,,0.00,WUHU216DAVISVP2,2013-04-08 01:07:00,
2013-04-07 21:12:00,48.5,34.9,29.92,NNW,333,2.0,4.0,59,0.00,,,0.00,WUHU216DAVISVP2,2013-04-08 01:12:00,
2013-04-07 21:17:00,48.5,34.9,29.92,NNW,333,2.0,4.0,59,0.00,,,0.00,WUHU216DAVISVP2,2013-04-08 01:17:00,
2013-04-07 21:22:00,48.3,34.7,29.92,NNW,333,0.0,4.0,59,0.00,,,0.00,WUHU216DAVISVP2,2013-04-08 01:22:00,
2013-04-07 21:27:00,48.2,34.6,29.92,NNW,333,0.0,2.0,59,0.00,,,0.00,WUHU216DAVISVP2,2013-04-08 01:27:00,
2013-04-07 21:32:00,48.1,35.0,29.92,North,350,1.0,4.0,60,0.00,,,0.00,WUHU216DAVISVP2,2013-04-08 01:32:00,
2013-04-07 21:38:00,48.0,34.9,29.93,North,350,0.0,4.0,60,0.00,,,0.00,WUHU216DAVISVP2,2013-04-08 01:38:00,
2013-04-07 21:43:00,48.0,34.9,29.93,North,350,0.0,4.0,60,0.00,,,0.00,WUHU216DAVISVP2,2013-04-08 01:43:00,
2013-04-07 21:48:00,47.6,34.5,29.93,North,350,1.0,2.0,60,0.00,,,0.00,WUHU216DAVISVP2,2013-04-08 01:48:00,
2013-04-07 21:53:00,47.4,34.7,29.93,North,350,1.0,2.0,61,0.00,,,0.00,WUHU216DAVISVP2,2013-04-08 01:53:00,
2013-04-07 21:58:00,47.2,34.5,29.93,North,350,0.0,4.0,61,0.00,,,0.00,WUHU216DAVISVP2,2013-04-08 01:58:00,
2013-04-07 22:04:00,47.0,34.7,29.94,North,350,0.0,4.0,62,0.00,,,0.00,WUHU216DAVISVP2,2013-04-08 02:04:00,
2013-04-07 22:09:00,46.9,34.6,29.94,North,350,0.0,2.0,62,0.00,,,0.00,WUHU216DAVISVP2,2013-04-08 02:09:00,
2013-04-07 22:14:00,46.8,34.6,29.94,North,350,0.0,2.0,62,0.00,,,0.00,WUHU216DAVISVP2,2013-04-08 02:14:00,
2013-04-07 22:19:00,46.7,34.5,29.94,North,350,0.0,1.0,62,0.00,,,0.00,WUHU216DAVISVP2,2013-04-08 02:19:00,
2013-04-07 22:20:00,46.7,34.5,29.94,North,350,0.0,1.0,62,0.00,,,0.00,WUHU216DAVISVP2,2013-04-08 02:20:00,
2013-04-07 22:24:00,46.7,34.5,29.94,North,350,0.0,1.0,62,0.00,,,0.00,WUHU216DAVISVP2,2013-04-08 02:24:00,
2013-04-07 22:28:00,46.5,34.3,29.94,North,350,0.0,2.0,62,0.00,,,0.00,WUHU216DAVISVP2,2013-04-08 02:28:00,
2013-04-07 22:29:00,46.5,34.3,29.94,North,350,0.0,2.0,62,0.00,,,0.00,WUHU216DAVISVP2,2013-04-08 02:29:00,
2013-04-07 22:34:00,46.5,34.3,29.94,North,350,0.0,2.0,62,0.00,,,0.00,WUHU216DAVISVP2,2013-04-08 02:34:00,
2013-04-07 22:39:00,46.1,34.3,29.94,North,350,0.0,2.0,63,0.00,,,0.00,WUHU216DAVISVP2,2013-04-08 02:39:00,
2013-04-07 22:44:00,45.9,34.1,29.94,North,350,2.0,3.0,63,0.00,,,0.00,WUHU216DAVISVP2,2013-04-08 02:44:00,
2013-04-07 22:49:00,45.8,34.4,29.94,North,350,0.0,3.0,64,0.00,,,0.00,WUHU216DAVISVP2,2013-04-08 02:49:00,
2013-04-07 22:55:00,45.6,34.2,29.94,North,350,1.0,2.0,64,0.00,,,0.00,WUHU216DAVISVP2,2013-04-08 02:55:00,
2013-04-07 23:00:00,45.5,34.1,29.94,North,351,2.0,3.0,64,0.00,,,0.00,WUHU216DAVISVP2,2013-04-08 03:00:00,
2013-04-07 23:05:00,45.4,34.4,29.94,North,351,2.0,3.0,65,0.00,,,0.00,WUHU216DAVISVP2,2013-04-08 03:05:00,
2013-04-07 23:10:00,45.2,34.2,29.94,North,351,1.0,4.0,65,0.00,,,0.00,WUHU216DAVISVP2,2013-04-08 03:10:00,
2013-04-07 23:16:00,45.0,34.4,29.95,North,355,1.0,4.0,66,0.00,,,0.00,WUHU216DAVISVP2,2013-04-08 03:16:00,
2013-04-07 23:21:00,44.8,34.2,29.95,North,355,2.0,4.0,66,0.00,,,0.00,WUHU216DAVISVP2,2013-04-08 03:21:00,
2013-04-07 23:26:00,44.8,34.2,29.95,North,355,2.0,4.0,66,0.00,,,0.00,WUHU216DAVISVP2,2013-04-08 03:26:00,
2013-04-07 23:32:00,44.4,34.2,29.95,ENE,60,1.0,4.0,67,0.00,,,0.00,WUHU216DAVISVP2,2013-04-08 03:32:00,
2013-04-07 23:37:00,44.3,34.1,29.95,ENE,60,2.0,4.0,67,0.00,,,0.00,WUHU216DAVISVP2,2013-04-08 03:37:00,
2013-04-07 23:42:00,44.1,34.3,29.95,ENE,60,1.0,4.0,68,0.00,,,0.00,WUHU216DAVISVP2,2013-04-08 03:42:00,
2013-04-07 23:47:00,43.9,34.1,29.95,ENE,61,1.0,4.0,68,0.00,,,0.00,WUHU216DAVISVP2,2013-04-08 03:47:00,
2013-04-07 23:52:00,43.8,34.0,29.96,ENE,61,2.0,4.0,68,0.00,,,0.00,WUHU216DAVISVP2,2013-04-08 03:52:00,
2013-04-07 23:57:00,43.6,34.2,29.96,ENE,63,2.0,4.0,69,0.00,,,0.00,WUHU216DAVISVP2,2013-04-08 03:57:00,